createdAt,value
2023-04-13T00:00:19.132Z,99.99
2023-04-13T00:01:19.153Z,99.99
2023-04-13T00:02:19.257Z,99.99
2023-04-13T00:03:19.304Z,99.99
2023-04-13T00:04:19.243Z,99.99
2023-04-13T00:05:19.269Z,99.99
2023-04-13T00:06:19.255Z,99.99
2023-04-13T00:07:19.285Z,99.99
2023-04-13T00:08:19.288Z,99.99
2023-04-13T00:09:19.313Z,99.99
2023-04-13T00:10:19.330Z,99.99
2023-04-13T00:11:19.350Z,99.99
2023-04-13T00:12:19.370Z,99.99
2023-04-13T00:13:19.385Z,99.99
2023-04-13T00:14:19.408Z,99.99
2023-04-13T00:15:19.430Z,99.99
2023-04-13T00:16:19.515Z,99.99
2023-04-13T00:17:19.464Z,99.99
2023-04-13T00:18:19.488Z,99.99
2023-04-13T00:19:19.510Z,99.99
2023-04-13T00:20:19.529Z,99.99
2023-04-13T00:21:19.542Z,99.99
2023-04-13T00:22:19.564Z,99.99
2023-04-13T00:23:19.582Z,99.99
2023-04-13T00:24:19.601Z,99.99
2023-04-13T00:25:19.619Z,99.99
2023-04-13T00:26:19.637Z,99.99
2023-04-13T00:27:19.661Z,99.99
2023-04-13T00:28:19.681Z,99.99
2023-04-13T00:29:19.698Z,99.99
2023-04-13T00:30:19.718Z,99.99
2023-04-13T00:31:19.766Z,99.99
2023-04-13T00:32:19.755Z,99.99
2023-04-13T00:33:19.795Z,99.99
2023-04-13T00:34:19.803Z,99.99
2023-04-13T00:35:19.826Z,99.99
2023-04-13T00:36:19.837Z,99.99
2023-04-13T00:37:19.856Z,99.99
2023-04-13T00:38:19.875Z,99.99
2023-04-13T00:39:19.893Z,99.99
2023-04-13T00:40:19.950Z,99.99
2023-04-13T00:41:19.976Z,99.99
2023-04-13T00:42:19.967Z,99.99
2023-04-13T00:43:19.974Z,99.99
2023-04-13T00:44:20.000Z,99.99
2023-04-13T00:45:20.015Z,99.99
2023-04-13T00:46:20.087Z,99.99
2023-04-13T00:47:20.052Z,99.99
2023-04-13T00:48:20.069Z,99.99
2023-04-13T00:49:20.091Z,99.99
2023-04-13T00:50:20.112Z,99.99
2023-04-13T00:51:20.128Z,99.99
2023-04-13T00:52:20.145Z,99.99
2023-04-13T00:53:20.189Z,99.99
2023-04-13T00:54:20.187Z,99.99
2023-04-13T00:55:20.212Z,99.99
2023-04-13T00:56:20.226Z,99.99
2023-04-13T00:57:20.246Z,99.99
2023-04-13T00:58:20.267Z,99.99
2023-04-13T00:59:20.291Z,99.99
2023-04-13T01:00:20.309Z,99.99
2023-04-13T01:01:20.361Z,99.99
2023-04-13T01:02:20.488Z,99.99
2023-04-13T01:03:20.438Z,99.99
2023-04-13T01:04:20.466Z,99.99
2023-04-13T01:05:20.412Z,99.99
2023-04-13T01:06:20.423Z,99.99
2023-04-13T01:07:20.441Z,99.99
2023-04-13T01:08:20.460Z,99.99
2023-04-13T01:09:20.479Z,99.99
2023-04-13T01:10:20.504Z,99.99
2023-04-13T01:11:20.518Z,99.99
2023-04-13T01:12:20.535Z,99.99
2023-04-13T01:13:20.590Z,99.99
2023-04-13T01:14:20.592Z,99.99
2023-04-13T01:15:20.594Z,99.99
2023-04-13T01:16:20.732Z,99.99
2023-04-13T01:17:20.664Z,99.99
2023-04-13T01:18:20.658Z,99.99
2023-04-13T01:19:20.678Z,99.99
2023-04-13T01:20:20.700Z,99.99
2023-04-13T01:21:20.712Z,99.99
2023-04-13T01:22:20.759Z,99.99
2023-04-13T01:23:20.751Z,99.99
2023-04-13T01:24:20.769Z,99.99
2023-04-13T01:25:20.794Z,99.99
2023-04-13T01:26:20.817Z,99.99
2023-04-13T01:27:20.852Z,99.99
2023-04-13T01:28:20.847Z,99.99
2023-04-13T01:29:20.871Z,99.99
2023-04-13T01:30:20.890Z,99.99
2023-04-13T01:31:20.969Z,99.99
2023-04-13T01:32:20.927Z,99.99
2023-04-13T01:33:20.947Z,99.99
2023-04-13T01:34:20.973Z,99.99
2023-04-13T01:35:20.987Z,99.99
2023-04-13T01:36:21.012Z,99.99
2023-04-13T01:37:21.025Z,99.99
2023-04-13T01:38:21.054Z,99.99
2023-04-13T01:39:21.062Z,99.99
2023-04-13T01:40:21.085Z,99.99
2023-04-13T01:41:21.106Z,99.99
2023-04-13T01:42:21.121Z,99.99
2023-04-13T01:43:21.162Z,99.99
2023-04-13T01:44:21.164Z,99.99
2023-04-13T01:45:21.214Z,99.99
2023-04-13T01:46:21.240Z,99.99
2023-04-13T01:47:21.245Z,99.99
2023-04-13T01:48:21.251Z,99.99
2023-04-13T01:49:21.260Z,99.99
2023-04-13T01:50:21.279Z,99.99
2023-04-13T01:51:21.306Z,99.99
2023-04-13T01:52:21.316Z,99.99
2023-04-13T01:53:21.339Z,99.99
2023-04-13T01:54:21.357Z,99.99
2023-04-13T01:55:21.383Z,99.99
2023-04-13T01:56:21.394Z,99.99
2023-04-13T01:57:21.417Z,99.99
2023-04-13T01:58:21.449Z,99.99
2023-04-13T01:59:21.459Z,99.99
2023-04-13T02:00:21.472Z,99.99
2023-04-13T02:01:21.573Z,99.99
2023-04-13T02:02:21.641Z,99.99
2023-04-13T02:03:21.572Z,99.99
2023-04-13T02:04:21.679Z,99.99
2023-04-13T02:05:21.573Z,99.99
2023-04-13T02:06:21.597Z,99.99
2023-04-13T02:07:21.614Z,99.99
2023-04-13T02:08:21.633Z,99.99
2023-04-13T02:09:21.653Z,99.99
2023-04-13T02:10:21.675Z,99.99
2023-04-13T02:11:21.693Z,99.99
2023-04-13T02:12:21.718Z,99.99
2023-04-13T02:13:21.734Z,99.99
2023-04-13T02:14:21.770Z,99.99
2023-04-13T02:15:21.782Z,99.99
2023-04-13T02:16:21.820Z,99.99
2023-04-13T02:17:21.826Z,99.99
2023-04-13T02:18:21.835Z,99.99
2023-04-13T02:19:21.891Z,99.99
2023-04-13T02:20:21.871Z,99.99
2023-04-13T02:21:21.892Z,99.99
2023-04-13T02:22:21.911Z,99.99
2023-04-13T02:23:21.932Z,99.99
2023-04-13T02:24:21.951Z,99.99
2023-04-13T02:25:21.974Z,99.99
2023-04-13T02:26:21.989Z,99.99
2023-04-13T02:27:22.010Z,99.99
2023-04-13T02:28:22.034Z,99.99
2023-04-13T02:29:22.050Z,99.99
2023-04-13T02:30:22.066Z,99.99
2023-04-13T02:31:22.112Z,99.99
2023-04-13T02:32:22.130Z,99.99
2023-04-13T02:33:22.137Z,99.99
2023-04-13T02:34:22.155Z,99.99
2023-04-13T02:35:22.176Z,99.99
2023-04-13T02:36:22.191Z,99.99
2023-04-13T02:37:22.217Z,99.99
2023-04-13T02:38:22.237Z,99.99
2023-04-13T02:39:22.256Z,99.99
2023-04-13T02:40:22.280Z,99.99
2023-04-13T02:41:22.308Z,99.99
2023-04-13T02:42:22.316Z,99.99
2023-04-13T02:43:22.333Z,99.99
2023-04-13T02:44:22.359Z,99.99
2023-04-13T02:45:22.372Z,99.99
2023-04-13T02:46:22.510Z,99.99
2023-04-13T02:47:22.443Z,99.99
2023-04-13T02:48:22.435Z,99.99
2023-04-13T02:49:22.457Z,99.99
2023-04-13T02:50:22.479Z,99.99
2023-04-13T02:51:22.497Z,99.99
2023-04-13T02:52:22.519Z,99.99
2023-04-13T02:53:22.539Z,99.99
2023-04-13T02:54:22.555Z,99.99
2023-04-13T02:55:22.581Z,99.99
2023-04-13T02:56:22.615Z,99.99
2023-04-13T02:57:22.617Z,99.99
2023-04-13T02:58:22.642Z,99.99
2023-04-13T02:59:22.675Z,99.99
2023-04-13T03:00:22.677Z,99.99
2023-04-13T03:01:22.715Z,99.99
2023-04-13T03:02:22.797Z,99.99
2023-04-13T03:03:22.825Z,99.99
2023-04-13T03:04:22.789Z,99.99
2023-04-13T03:05:22.817Z,99.99
2023-04-13T03:06:22.802Z,99.99
2023-04-13T03:07:22.825Z,99.99
2023-04-13T03:08:22.845Z,99.99
2023-04-13T03:09:22.864Z,99.99
2023-04-13T03:10:22.900Z,99.99
2023-04-13T03:11:22.900Z,99.99
2023-04-13T03:12:22.929Z,99.99
2023-04-13T03:13:22.950Z,99.99
2023-04-13T03:14:22.964Z,99.99
2023-04-13T03:15:22.994Z,99.99
2023-04-13T03:16:23.022Z,99.99
2023-04-13T03:17:23.064Z,99.99
2023-04-13T03:18:23.043Z,99.99
2023-04-13T03:19:23.068Z,99.93
2023-04-13T03:20:23.083Z,99.74
2023-04-13T03:21:23.119Z,99.74
2023-04-13T03:22:23.132Z,99.55
2023-04-13T03:23:23.151Z,99.26
2023-04-13T03:24:23.171Z,98.97
2023-04-13T03:25:23.193Z,98.50
2023-04-13T03:26:23.221Z,98.79
2023-04-13T03:27:23.227Z,98.22
2023-04-13T03:28:23.289Z,98.60
2023-04-13T03:29:23.271Z,98.31
2023-04-13T03:30:23.292Z,97.93
2023-04-13T03:31:23.459Z,98.31
2023-04-13T03:32:23.409Z,98.22
2023-04-13T03:33:23.356Z,98.41
2023-04-13T03:34:23.373Z,97.45
2023-04-13T03:35:23.398Z,97.83
2023-04-13T03:36:23.416Z,97.83
2023-04-13T03:37:23.435Z,97.93
2023-04-13T03:38:23.457Z,97.55
2023-04-13T03:39:23.473Z,97.93
2023-04-13T03:40:23.497Z,97.74
2023-04-13T03:41:23.519Z,97.83
2023-04-13T03:42:23.546Z,97.36
2023-04-13T03:43:23.564Z,97.27
2023-04-13T03:44:23.584Z,96.89
2023-04-13T03:45:23.601Z,96.60
2023-04-13T03:46:23.635Z,96.50
2023-04-13T03:47:23.662Z,96.60
2023-04-13T03:48:23.661Z,96.50
2023-04-13T03:49:23.687Z,96.50
2023-04-13T03:50:23.702Z,96.98
2023-04-13T03:51:23.741Z,96.31
2023-04-13T03:52:23.748Z,96.12
2023-04-13T03:53:23.764Z,96.03
2023-04-13T03:54:23.787Z,96.31
2023-04-13T03:55:23.800Z,95.94
2023-04-13T03:56:23.835Z,95.56
2023-04-13T03:57:23.854Z,96.12
2023-04-13T03:58:23.868Z,95.75
2023-04-13T03:59:23.884Z,95.56
2023-04-13T04:00:23.905Z,95.36
2023-04-13T04:01:23.929Z,95.27
2023-04-13T04:02:24.037Z,95.36
2023-04-13T04:03:24.004Z,95.65
2023-04-13T04:04:24.077Z,95.56
2023-04-13T04:05:24.019Z,95.84
2023-04-13T04:06:24.028Z,95.56
2023-04-13T04:07:24.052Z,95.75
2023-04-13T04:08:24.076Z,96.12
2023-04-13T04:09:24.094Z,96.12
2023-04-13T04:10:24.114Z,95.94
2023-04-13T04:11:24.131Z,95.65
2023-04-13T04:12:24.151Z,95.56
2023-04-13T04:13:24.174Z,95.75
2023-04-13T04:14:24.200Z,95.56
2023-04-13T04:15:24.224Z,95.27
2023-04-13T04:16:24.281Z,95.56
2023-04-13T04:17:24.256Z,94.89
2023-04-13T04:18:24.275Z,94.79
2023-04-13T04:19:24.295Z,94.89
2023-04-13T04:20:24.317Z,95.46
2023-04-13T04:21:24.337Z,94.89
2023-04-13T04:22:24.357Z,95.46
2023-04-13T04:23:24.378Z,95.17
2023-04-13T04:24:24.399Z,95.46
2023-04-13T04:25:24.419Z,95.56
2023-04-13T04:26:24.444Z,95.56
2023-04-13T04:27:24.461Z,94.89
2023-04-13T04:28:24.481Z,94.98
2023-04-13T04:29:24.500Z,95.17
2023-04-13T04:30:24.521Z,95.27
2023-04-13T04:31:24.602Z,95.27
2023-04-13T04:32:24.619Z,95.08
2023-04-13T04:33:24.583Z,95.56
2023-04-13T04:34:24.603Z,95.84
2023-04-13T04:35:24.624Z,95.56
2023-04-13T04:36:24.669Z,95.84
2023-04-13T04:37:24.661Z,95.56
2023-04-13T04:38:24.685Z,96.31
2023-04-13T04:39:24.705Z,96.50
2023-04-13T04:40:24.727Z,96.12
2023-04-13T04:41:24.751Z,96.22
2023-04-13T04:42:24.774Z,96.22
2023-04-13T04:43:24.791Z,95.84
2023-04-13T04:44:24.814Z,96.98
2023-04-13T04:45:24.857Z,96.31
2023-04-13T04:46:24.923Z,96.22
2023-04-13T04:47:24.879Z,96.17
2023-04-13T04:48:24.897Z,96.22
2023-04-13T04:49:24.913Z,96.22
2023-04-13T04:50:24.934Z,96.50
2023-04-13T04:51:24.959Z,96.12
2023-04-13T04:52:25.204Z,96.03
2023-04-13T04:53:24.994Z,96.03
2023-04-13T04:54:25.022Z,96.46
2023-04-13T04:55:25.035Z,96.26
2023-04-13T04:56:25.060Z,96.17
2023-04-13T04:57:25.077Z,96.26
2023-04-13T04:58:25.100Z,96.26
2023-04-13T04:59:25.120Z,96.46
2023-04-13T05:00:25.150Z,96.17
2023-04-13T05:01:25.212Z,95.98
2023-04-13T05:02:25.309Z,95.89
2023-04-13T05:03:25.218Z,95.89
2023-04-13T05:04:25.221Z,95.79
2023-04-13T05:05:25.310Z,95.56
2023-04-13T05:06:25.265Z,95.98
2023-04-13T05:07:25.287Z,95.70
2023-04-13T05:08:25.306Z,95.79
2023-04-13T05:09:25.328Z,95.98
2023-04-13T05:10:25.349Z,96.84
2023-04-13T05:11:25.369Z,96.17
2023-04-13T05:12:25.395Z,96.36
2023-04-13T05:13:25.415Z,96.08
2023-04-13T05:14:25.460Z,96.17
2023-04-13T05:15:25.509Z,96.17
2023-04-13T05:16:25.499Z,96.08
2023-04-13T05:17:25.536Z,96.46
2023-04-13T05:18:25.517Z,96.08
2023-04-13T05:19:25.532Z,96.36
2023-04-13T05:20:25.566Z,96.94
2023-04-13T05:21:25.579Z,96.74
2023-04-13T05:22:25.623Z,96.26
2023-04-13T05:23:25.619Z,96.36
2023-04-13T05:24:25.641Z,96.36
2023-04-13T05:25:25.683Z,96.94
2023-04-13T05:26:25.737Z,96.55
2023-04-13T05:27:25.716Z,96.74
2023-04-13T05:28:25.723Z,97.22
2023-04-13T05:29:25.762Z,97.03
2023-04-13T05:30:25.766Z,97.13
2023-04-13T05:31:25.840Z,97.50
2023-04-13T05:32:25.832Z,97.41
2023-04-13T05:33:25.824Z,98.08
2023-04-13T05:34:25.850Z,97.88
2023-04-13T05:35:25.868Z,97.79
2023-04-13T05:36:25.890Z,98.08
2023-04-13T05:37:25.915Z,98.36
2023-04-13T05:38:25.934Z,98.46
2023-04-13T05:39:25.969Z,98.65
2023-04-13T05:40:25.980Z,99.02
2023-04-13T05:41:25.996Z,99.31
2023-04-13T05:42:26.020Z,98.65
2023-04-13T05:43:26.034Z,98.93
2023-04-13T05:44:26.057Z,99.98
2023-04-13T05:45:26.079Z,99.69
2023-04-13T05:46:26.154Z,99.99
2023-04-13T05:47:26.155Z,99.99
2023-04-13T05:48:26.145Z,99.99
2023-04-13T05:49:26.177Z,99.99
2023-04-13T05:50:26.180Z,99.99
2023-04-13T05:51:26.200Z,99.99
2023-04-13T05:52:26.235Z,99.99
2023-04-13T05:53:26.244Z,99.99
2023-04-13T05:54:26.270Z,99.99
2023-04-13T05:55:26.293Z,99.99
2023-04-13T05:56:26.310Z,99.99
2023-04-13T05:57:26.327Z,99.99
2023-04-13T05:58:26.392Z,99.99
2023-04-13T05:59:26.365Z,99.99
2023-04-13T06:00:26.392Z,99.99
2023-04-13T06:01:26.406Z,99.99
2023-04-13T06:02:26.797Z,99.99
2023-04-13T06:03:26.692Z,99.99
2023-04-13T06:04:26.631Z,99.99
2023-04-13T06:05:26.528Z,99.99
2023-04-13T06:06:26.522Z,99.99
2023-04-13T06:07:26.530Z,99.99
2023-04-13T06:08:28.912Z,99.99
2023-04-13T06:09:26.572Z,99.99
2023-04-13T06:10:26.618Z,99.99
2023-04-13T06:11:26.610Z,99.99
2023-04-13T06:12:26.636Z,99.99
2023-04-13T06:13:26.656Z,99.99
2023-04-13T06:14:26.677Z,99.99
2023-04-13T06:15:26.698Z,99.99
2023-04-13T06:16:26.769Z,99.99
2023-04-13T06:17:26.796Z,99.99
2023-04-13T06:18:26.771Z,99.99
2023-04-13T06:19:28.882Z,99.99
2023-04-13T06:20:26.804Z,99.99
2023-04-13T06:21:26.830Z,99.99
2023-04-13T06:22:26.846Z,99.99
2023-04-13T06:23:26.866Z,99.99
2023-04-13T06:24:26.886Z,99.99
2023-04-13T06:25:26.908Z,99.99
2023-04-13T06:26:26.929Z,99.99
2023-04-13T06:27:26.955Z,99.99
2023-04-13T06:28:26.976Z,99.99
2023-04-13T06:29:26.993Z,99.99
2023-04-13T06:30:27.018Z,99.99
2023-04-13T06:31:27.116Z,99.99
2023-04-13T06:32:27.078Z,99.99
2023-04-13T06:33:27.078Z,99.99
2023-04-13T06:34:27.101Z,99.99
2023-04-13T06:35:27.135Z,99.99
2023-04-13T06:36:27.160Z,99.99
2023-04-13T06:37:27.169Z,99.99
2023-04-13T06:38:27.194Z,99.99
2023-04-13T06:39:28.583Z,99.99
2023-04-13T06:40:27.251Z,99.99
2023-04-13T06:41:27.278Z,99.99
2023-04-13T06:42:27.272Z,99.99
2023-04-13T06:43:29.839Z,99.99
2023-04-13T06:44:27.319Z,99.99
2023-04-13T06:45:27.339Z,99.99
2023-04-13T06:46:27.424Z,99.99
2023-04-13T06:47:27.413Z,99.99
2023-04-13T06:48:27.410Z,99.99
2023-04-13T06:49:27.442Z,99.99
2023-04-13T06:50:27.475Z,99.99
2023-04-13T06:51:27.468Z,99.99
2023-04-13T06:52:27.496Z,99.99
2023-04-13T06:53:27.531Z,99.99
2023-04-13T06:54:27.548Z,99.99
2023-04-13T06:55:27.556Z,99.99
2023-04-13T06:56:27.598Z,99.99
2023-04-13T06:57:27.607Z,99.99
2023-04-13T06:58:27.624Z,99.99
2023-04-13T06:59:27.644Z,99.99
2023-04-13T07:00:30.501Z,99.99
2023-04-13T07:01:27.812Z,99.99
2023-04-13T07:02:27.822Z,99.99
2023-04-13T07:03:27.798Z,99.99
2023-04-13T07:04:30.753Z,99.99
2023-04-13T07:05:27.855Z,99.99
2023-04-13T07:06:27.819Z,99.99
2023-04-13T07:07:27.825Z,99.99
2023-04-13T07:08:27.848Z,99.94
2023-04-13T07:09:27.870Z,99.08
2023-04-13T07:10:27.905Z,98.89
2023-04-13T07:11:27.917Z,98.89
2023-04-13T07:12:27.937Z,98.99
2023-04-13T07:13:27.969Z,98.51
2023-04-13T07:14:27.983Z,97.94
2023-04-13T07:15:28.014Z,97.46
2023-04-13T07:16:28.139Z,97.08
2023-04-13T07:17:28.100Z,97.08
2023-04-13T07:18:28.071Z,97.27
2023-04-13T07:19:28.099Z,97.75
2023-04-13T07:20:28.120Z,98.13
2023-04-13T07:21:28.150Z,98.03
2023-04-13T07:22:28.163Z,98.22
2023-04-13T07:23:28.185Z,98.70
2023-04-13T07:24:29.842Z,97.65
2023-04-13T07:25:28.233Z,98.41
2023-04-13T07:26:28.266Z,98.18
2023-04-13T07:27:28.282Z,98.94
2023-04-13T07:28:28.305Z,98.36
2023-04-13T07:29:28.330Z,97.80
2023-04-13T07:30:28.347Z,97.32
2023-04-13T07:31:28.386Z,96.65
2023-04-13T07:32:31.307Z,96.65
2023-04-13T07:33:28.414Z,95.89
2023-04-13T07:34:28.443Z,95.27
2023-04-13T07:35:28.460Z,95.17
2023-04-13T07:36:28.482Z,94.70
2023-04-13T07:37:28.535Z,94.70
2023-04-13T07:38:28.530Z,94.89
2023-04-13T07:39:28.558Z,94.79
2023-04-13T07:40:28.582Z,94.03
2023-04-13T07:41:28.597Z,93.93
2023-04-13T07:42:28.624Z,93.84
2023-04-13T07:43:28.645Z,92.98
2023-04-13T07:44:28.675Z,93.02
2023-04-13T07:45:28.690Z,92.74
2023-04-13T07:46:28.724Z,92.74
2023-04-13T07:47:28.776Z,91.88
2023-04-13T07:48:28.758Z,91.60
2023-04-13T07:49:28.785Z,90.83
2023-04-13T07:50:28.814Z,90.55
2023-04-13T07:51:28.828Z,89.97
2023-04-13T07:52:28.879Z,88.92
2023-04-13T07:53:28.897Z,88.16
2023-04-13T07:54:28.900Z,87.78
2023-04-13T07:55:28.921Z,87.40
2023-04-13T07:56:28.948Z,87.02
2023-04-13T07:57:28.970Z,87.11
2023-04-13T07:58:28.995Z,85.87
2023-04-13T07:59:29.017Z,86.06
2023-04-13T08:00:29.044Z,86.82
2023-04-13T08:01:29.090Z,86.73
2023-04-13T08:02:29.299Z,85.68
2023-04-13T08:03:29.177Z,85.49
2023-04-13T08:04:29.239Z,84.16
2023-04-13T08:05:29.285Z,83.67
2023-04-13T08:06:29.181Z,83.67
2023-04-13T08:07:29.239Z,83.29
2023-04-13T08:08:29.231Z,83.58
2023-04-13T08:09:29.256Z,83.67
2023-04-13T08:10:29.279Z,83.11
2023-04-13T08:11:29.300Z,83.11
2023-04-13T08:12:29.330Z,82.24
2023-04-13T08:13:29.347Z,82.30
2023-04-13T08:14:29.374Z,82.91
2023-04-13T08:15:29.398Z,82.30
2023-04-13T08:16:29.479Z,80.96
2023-04-13T08:17:29.501Z,81.25
2023-04-13T08:18:29.478Z,81.77
2023-04-13T08:19:29.502Z,82.11
2023-04-13T08:20:29.520Z,82.06
2023-04-13T08:21:29.537Z,82.15
2023-04-13T08:22:29.574Z,81.96
2023-04-13T08:23:29.594Z,82.15
2023-04-13T08:24:29.620Z,82.91
2023-04-13T08:25:29.647Z,82.53
2023-04-13T08:26:29.658Z,82.34
2023-04-13T08:27:29.679Z,82.15
2023-04-13T08:28:32.001Z,83.11
2023-04-13T08:29:29.726Z,83.11
2023-04-13T08:30:29.790Z,83.20
2023-04-13T08:31:29.808Z,83.14
2023-04-13T08:32:29.821Z,82.67
2023-04-13T08:33:29.825Z,81.04
2023-04-13T08:34:29.844Z,80.66
2023-04-13T08:35:29.871Z,80.47
2023-04-13T08:36:29.906Z,80.19
2023-04-13T08:37:29.915Z,79.61
2023-04-13T08:38:29.938Z,78.75
2023-04-13T08:39:29.961Z,79.23
2023-04-13T08:40:29.989Z,78.28
2023-04-13T08:41:30.013Z,77.99
2023-04-13T08:42:30.049Z,79.14
2023-04-13T08:43:30.065Z,80.19
2023-04-13T08:44:30.091Z,79.85
2023-04-13T08:45:30.109Z,80.22
2023-04-13T08:46:30.128Z,80.70
2023-04-13T08:47:30.210Z,80.51
2023-04-13T08:48:36.361Z,78.89
2023-04-13T08:49:30.209Z,78.79
2023-04-13T08:50:30.224Z,77.78
2023-04-13T08:51:30.245Z,77.55
2023-04-13T08:52:30.269Z,77.21
2023-04-13T08:53:30.295Z,77.21
2023-04-13T08:54:30.319Z,77.01
2023-04-13T08:55:30.342Z,77.11
2023-04-13T08:56:44.419Z,75.68
2023-04-13T08:57:30.399Z,74.21
2023-04-13T08:58:30.417Z,74.21
2023-04-13T08:59:30.439Z,74.88
2023-04-13T09:00:30.476Z,75.45
2023-04-13T09:01:30.569Z,75.83
2023-04-13T09:02:30.840Z,75.54
2023-04-13T09:03:30.669Z,74.98
2023-04-13T09:04:30.620Z,74.30
2023-04-13T09:05:30.584Z,74.30
2023-04-13T09:06:30.609Z,73.92
2023-04-13T09:07:30.631Z,73.92
2023-04-13T09:08:30.656Z,74.02
2023-04-13T09:09:30.683Z,74.30
2023-04-13T09:10:30.705Z,74.40
2023-04-13T09:11:30.729Z,73.83
2023-04-13T09:12:30.753Z,74.30
2023-04-13T09:13:30.793Z,74.02
2023-04-13T09:14:30.804Z,73.92
2023-04-13T09:15:30.829Z,74.69
2023-04-13T09:16:30.861Z,75.01
2023-04-13T09:17:30.925Z,75.10
2023-04-13T09:18:30.901Z,74.82
2023-04-13T09:19:30.932Z,73.86
2023-04-13T09:20:30.948Z,73.96
2023-04-13T09:21:30.973Z,74.24
2023-04-13T09:22:31.005Z,74.05
2023-04-13T09:23:31.038Z,74.34
2023-04-13T09:24:31.055Z,72.81
2023-04-13T09:25:31.073Z,73.39
2023-04-13T09:26:31.102Z,73.48
2023-04-13T09:27:31.123Z,73.67
2023-04-13T09:28:31.148Z,73.44
2023-04-13T09:29:31.178Z,73.86
2023-04-13T09:30:31.208Z,73.35
2023-04-13T09:31:31.253Z,73.92
2023-04-13T09:32:31.292Z,74.11
2023-04-13T09:33:31.274Z,73.73
2023-04-13T09:34:31.313Z,74.78
2023-04-13T09:35:31.324Z,74.69
2023-04-13T09:36:31.347Z,75.07
2023-04-13T09:37:31.372Z,74.88
2023-04-13T09:38:31.396Z,74.98
2023-04-13T09:39:31.417Z,74.88
2023-04-13T09:40:31.446Z,74.78
2023-04-13T09:41:31.465Z,75.26
2023-04-13T09:42:31.492Z,75.93
2023-04-13T09:43:31.516Z,75.93
2023-04-13T09:44:31.541Z,76.79
2023-04-13T09:45:31.568Z,76.79
2023-04-13T09:46:31.625Z,77.08
2023-04-13T09:47:31.618Z,77.45
2023-04-13T09:48:31.642Z,76.50
2023-04-13T09:49:31.660Z,77.17
2023-04-13T09:50:31.687Z,77.40
2023-04-13T09:51:31.715Z,77.01
2023-04-13T09:52:31.760Z,77.11
2023-04-13T09:53:31.761Z,76.73
2023-04-13T09:54:31.798Z,76.79
2023-04-13T09:55:31.814Z,77.55
2023-04-13T09:56:31.851Z,76.88
2023-04-13T09:57:31.879Z,76.73
2023-04-13T09:58:31.894Z,76.82
2023-04-13T09:59:31.910Z,76.60
2023-04-13T10:00:31.933Z,76.60
2023-04-13T10:01:32.064Z,76.21
2023-04-13T10:02:32.161Z,77.36
2023-04-13T10:03:32.189Z,76.98
2023-04-13T10:04:32.055Z,77.17
2023-04-13T10:05:32.093Z,76.50
2023-04-13T10:06:32.080Z,77.17
2023-04-13T10:07:32.116Z,76.69
2023-04-13T10:08:38.137Z,77.08
2023-04-13T10:09:32.155Z,76.79
2023-04-13T10:10:32.176Z,77.51
2023-04-13T10:11:32.201Z,77.55
2023-04-13T10:12:32.231Z,77.89
2023-04-13T10:13:32.254Z,78.13
2023-04-13T10:14:32.276Z,78.60
2023-04-13T10:15:32.316Z,77.84
2023-04-13T10:16:32.418Z,77.45
2023-04-13T10:17:32.414Z,77.55
2023-04-13T10:18:32.521Z,77.36
2023-04-13T10:19:32.402Z,77.84
2023-04-13T10:20:32.427Z,78.03
2023-04-13T10:21:32.455Z,78.70
2023-04-13T10:22:32.472Z,78.13
2023-04-13T10:23:32.498Z,79.12
2023-04-13T10:24:32.524Z,79.22
2023-04-13T10:25:34.499Z,78.93
2023-04-13T10:26:32.575Z,78.45
2023-04-13T10:27:32.595Z,77.72
2023-04-13T10:28:32.625Z,77.15
2023-04-13T10:29:32.649Z,77.15
2023-04-13T10:30:32.677Z,77.53
2023-04-13T10:31:32.703Z,76.96
2023-04-13T10:32:32.737Z,76.86
2023-04-13T10:33:32.752Z,76.57
2023-04-13T10:34:32.769Z,76.52
2023-04-13T10:35:32.800Z,76.52
2023-04-13T10:36:32.824Z,76.04
2023-04-13T10:37:32.863Z,75.47
2023-04-13T10:38:32.871Z,75.18
2023-04-13T10:39:32.897Z,74.80
2023-04-13T10:40:32.919Z,74.22
2023-04-13T10:41:32.946Z,74.41
2023-04-13T10:42:47.214Z,73.46
2023-04-13T10:43:32.998Z,73.55
2023-04-13T10:44:38.950Z,73.55
2023-04-13T10:45:33.053Z,73.55
2023-04-13T10:46:33.107Z,74.04
2023-04-13T10:47:33.125Z,73.94
2023-04-13T10:48:33.123Z,74.22
2023-04-13T10:49:33.151Z,74.80
2023-04-13T10:50:33.170Z,74.90
2023-04-13T10:51:33.202Z,74.04
2023-04-13T10:52:33.225Z,74.22
2023-04-13T10:53:33.252Z,73.27
2023-04-13T10:54:33.281Z,73.36
2023-04-13T10:55:33.322Z,72.98
2023-04-13T10:56:33.335Z,72.79
2023-04-13T10:57:33.357Z,73.65
2023-04-13T10:58:33.459Z,73.36
2023-04-13T10:59:39.184Z,73.50
2023-04-13T11:00:45.452Z,73.79
2023-04-13T11:01:33.455Z,73.21
2023-04-13T11:02:33.747Z,73.02
2023-04-13T11:03:33.603Z,72.54
2023-04-13T11:04:33.592Z,72.25
2023-04-13T11:05:33.590Z,71.68
2023-04-13T11:06:33.583Z,72.22
2023-04-13T11:07:33.612Z,72.02
2023-04-13T11:08:33.637Z,71.93
2023-04-13T11:09:33.668Z,72.50
2023-04-13T11:10:33.686Z,72.60
2023-04-13T11:11:33.712Z,72.98
2023-04-13T11:12:33.760Z,72.69
2023-04-13T11:13:33.760Z,72.37
2023-04-13T11:14:33.802Z,72.47
2023-04-13T11:15:33.845Z,72.94
2023-04-13T11:16:33.884Z,73.04
2023-04-13T11:17:33.900Z,73.14
2023-04-13T11:18:33.913Z,73.23
2023-04-13T11:19:33.914Z,73.39
2023-04-13T11:20:33.950Z,73.29
2023-04-13T11:21:33.972Z,74.05
2023-04-13T11:22:33.999Z,75.20
2023-04-13T11:23:34.015Z,74.95
2023-04-13T11:24:34.085Z,75.43
2023-04-13T11:25:34.075Z,75.34
2023-04-13T11:26:34.186Z,74.48
2023-04-13T11:27:34.114Z,73.90
2023-04-13T11:28:34.152Z,74.05
2023-04-13T11:29:34.166Z,74.34
2023-04-13T11:30:34.191Z,74.19
2023-04-13T11:31:34.250Z,74.57
2023-04-13T11:32:34.360Z,74.66
2023-04-13T11:33:34.287Z,74.09
2023-04-13T11:34:34.292Z,74.76
2023-04-13T11:35:34.322Z,74.95
2023-04-13T11:36:34.347Z,74.85
2023-04-13T11:37:34.365Z,75.09
2023-04-13T11:38:34.405Z,74.99
2023-04-13T11:39:34.416Z,73.94
2023-04-13T11:40:34.445Z,73.59
2023-04-13T11:41:34.471Z,73.40
2023-04-13T11:42:34.496Z,73.88
2023-04-13T11:43:34.520Z,73.88
2023-04-13T11:44:34.548Z,72.73
2023-04-13T11:45:34.575Z,72.83
2023-04-13T11:46:34.622Z,72.16
2023-04-13T11:47:34.671Z,72.25
2023-04-13T11:48:34.650Z,72.34
2023-04-13T11:49:34.678Z,71.97
2023-04-13T11:50:34.702Z,71.81
2023-04-13T11:51:34.725Z,70.05
2023-04-13T11:52:34.767Z,69.38
2023-04-13T11:53:34.769Z,70.24
2023-04-13T11:54:34.798Z,69.95
2023-04-13T11:55:42.567Z,70.05
2023-04-13T11:56:34.847Z,70.05
2023-04-13T11:57:34.901Z,69.76
2023-04-13T11:58:34.901Z,69.76
2023-04-13T11:59:34.947Z,70.76
2023-04-13T12:00:34.964Z,70.43
2023-04-13T12:01:37.541Z,70.85
2023-04-13T12:02:41.649Z,70.76
2023-04-13T12:03:42.513Z,70.76
2023-04-13T12:04:35.173Z,70.76
2023-04-13T12:05:35.588Z,70.28
2023-04-13T12:06:35.437Z,70.95
2023-04-13T12:07:35.354Z,70.18
2023-04-13T12:08:35.545Z,70.18
2023-04-13T12:10:40.537Z,69.99
2023-04-13T12:11:42.032Z,70.47
2023-04-13T12:13:37.551Z,70.37
2023-04-13T12:15:43.969Z,69.57
2023-04-13T12:17:41.044Z,69.76
2023-04-13T12:18:37.277Z,70.05
2023-04-13T12:19:35.758Z,69.76
2023-04-13T12:20:35.531Z,70.01
2023-04-13T12:21:36.459Z,70.21
2023-04-13T12:22:44.204Z,71.36
2023-04-13T12:23:35.723Z,72.12
2023-04-13T12:24:37.574Z,73.61
2023-04-13T12:25:36.319Z,74.57
2023-04-13T12:27:35.746Z,75.87
2023-04-13T12:28:35.673Z,76.45
2023-04-13T12:29:35.711Z,76.73
2023-04-13T12:30:35.732Z,76.54
2023-04-13T12:31:35.852Z,77.78
2023-04-13T12:32:37.195Z,77.59
2023-04-13T12:33:35.802Z,77.78
2023-04-13T12:34:35.862Z,77.50
2023-04-13T12:35:35.856Z,78.55
2023-04-13T12:36:35.882Z,78.93
2023-04-13T12:37:35.929Z,78.26
2023-04-13T12:38:35.935Z,78.74
2023-04-13T12:39:35.958Z,78.93
2023-04-13T12:40:35.983Z,78.26
2023-04-13T12:41:36.055Z,78.30
2023-04-13T12:42:36.031Z,77.92
2023-04-13T12:43:36.056Z,77.44
2023-04-13T12:44:36.087Z,77.82
2023-04-13T12:45:36.105Z,77.34
2023-04-13T12:46:36.183Z,77.15
2023-04-13T12:47:36.190Z,77.76
2023-04-13T12:48:36.183Z,76.90
2023-04-13T12:49:36.210Z,77.00
2023-04-13T12:50:36.233Z,76.56
2023-04-13T12:51:36.263Z,77.04
2023-04-13T12:52:36.281Z,76.37
2023-04-13T12:53:36.311Z,76.18
2023-04-13T12:54:36.335Z,75.79
2023-04-13T12:55:36.357Z,75.12
2023-04-13T12:56:36.412Z,74.36
2023-04-13T12:57:36.429Z,74.11